Flight Track Log - Related Links

Times and Time Zones

All times are in EDT time to prevent confusion due to time zone crossing. See the SWA2236 flight status page for this flight to view local times or setup timezone preferences in your user account.

Time Position Orientation Groundspeed Altitude Reporting Facility
EDT Latitude Longitude Course Direction KTS MPH feet Rate Location/Type
Mon 02:45:17 PM 36.0769 -115.1119 91° East 180 207 3,100  Level Los Angeles Center
Mon 02:46:11 PM 36.0758 -115.0486 91° East 203 234 4,500 1,670 Climbing Los Angeles Center
Mon 02:47:12 PM 36.0742 -114.9586 91° East 234 269 6,300 2,156 Climbing Los Angeles Center
Mon 02:48:19 PM 36.0614 -114.8536 99° East 294 338 9,100 2,208 Climbing Los Angeles Center
Mon 02:49:17 PM 36.0478 -114.7556 100° East 298 343 10,900 2,000 Climbing Los Angeles Center
Mon 02:50:19 PM 36.0306 -114.6369 100° East 340 391 13,100 2,323 Climbing Los Angeles Center
Mon 02:51:21 PM 36.0131 -114.5136 100° East 359 413 15,700 2,516 Climbing Los Angeles Center
Mon 02:52:23 PM 35.9892 -114.3606 101° East 374 430 18,300 2,274 Climbing Los Angeles Center
Mon 02:53:25 PM 35.9833 -114.2256 93° East 388 447 20,400 1,887 Climbing Los Angeles Center
Mon 02:54:27 PM 35.9756 -114.0844 94° East 408 470 22,200 1,742 Climbing Los Angeles Center
Mon 02:55:29 PM 35.9664 -113.9392 94° East 420 483 24,000 1,742 Climbing Los Angeles Center
Mon 02:56:31 PM 35.9561 -113.7939 95° East 424 488 25,800 1,548 Climbing Los Angeles Center
Mon 02:57:33 PM 35.9528 -113.6444 92° East 432 497 27,200 1,306 Climbing Los Angeles Center
Mon 02:58:35 PM 35.9486 -113.4883 92° East 445 512 28,500 1,161 Climbing Los Angeles Center
Mon 02:59:37 PM 35.9389 -113.3325 94° East 456 525 29,600 1,355 Climbing Los Angeles Center
Mon 03:00:39 PM 35.9214 -113.1447 97° East 460 529 31,300 1,355 Climbing Los Angeles Center
Mon 03:01:41 PM 35.9100 -112.9881 95° East 458 527 32,400 968 Climbing Los Angeles Center
Mon 03:02:43 PM 35.8953 -112.8281 96° East 466 536 33,300 1,016 Climbing Los Angeles Center
Mon 03:03:45 PM 35.8811 -112.6667 96° East 473 544 34,500 1,065 Climbing Los Angeles Center
Mon 03:04:47 PM 35.8661 -112.5061 97° East 471 542 35,500 932 Climbing Los Angeles Center
Mon 03:06:26 PM 35.8431 -112.2483 96° East 474 545 37,000 559 Climbing Los Angeles Center
Mon 03:07:28 PM 35.8250 -112.0544 96° East 476 548 37,000  Level Los Angeles Center
Mon 03:08:30 PM 35.8078 -111.8933 97° East 476 548 37,000  Level Los Angeles Center
Mon 03:09:32 PM 35.7922 -111.7333 97° East 474 545 37,000  Level Los Angeles Center
Mon 03:10:34 PM 35.7736 -111.5517 97° East 473 544 37,000  Level Los Angeles Center
Mon 03:11:36 PM 35.7578 -111.3944 97° East 468 539 37,000  Level Los Angeles Center
Mon 03:12:38 PM 35.7419 -111.2350 97° East 467 537 37,000  Level Los Angeles Center
Mon 03:13:15 PM 35.7328 -111.1383 97° East 472 543 37,000  Level Denver Center
Mon 03:13:51 PM 35.7203 -111.0342 98° East 472 543 37,000  Level Albuquerque Center
Mon 03:14:53 PM 35.7064 -110.8814 96° East 471 542 37,000  Level Albuquerque Center
Mon 03:15:55 PM 35.7128 -110.7031 87° East 469 540 37,000  Level Albuquerque Center
Mon 03:16:57 PM 35.7144 -110.5494 89° East 469 540 37,000  Level Albuquerque Center
Mon 03:17:58 PM 35.7164 -110.3717 89° East 467 537 37,000  Level Albuquerque Center
Mon 03:19:00 PM 35.7175 -110.2197 89° East 465 535 37,000  Level Albuquerque Center
Mon 03:20:14 PM 35.7197 -110.0192 89° East 462 532 37,000  Level Albuquerque Center
Mon 03:21:16 PM 35.7203 -109.8678 90° East 462 532 37,000  Level Albuquerque Center
Mon 03:22:17 PM 35.7292 -109.6933 86° East 460 529 37,000  Level Albuquerque Center
Mon 03:23:19 PM 35.7431 -109.5433 83° East 462 532 37,000  Level Albuquerque Center
Mon 03:24:21 PM 35.7458 -109.3667 89° East 462 532 37,000 -387 Level Albuquerque Center
Mon 03:25:23 PM 35.7447 -109.2139 90° East 467 537 36,200 -878 Descending Albuquerque Center
Mon 03:26:24 PM 35.7433 -109.0361 90° East 468 539 35,200 -585 Descending Albuquerque Center
Mon 03:27:26 PM 35.7417 -108.8856 91° East 465 535 35,000 -97 Descending Albuquerque Center
Mon 03:28:28 PM 35.7417 -108.7094 90° East 465 535 35,000  Level Albuquerque Center
Mon 03:29:30 PM 35.7394 -108.5575 91° East 466 536 35,000  Level Albuquerque Center
Mon 03:30:31 PM 35.7383 -108.3792 90° East 468 539 35,000  Level Albuquerque Center
Mon 03:31:33 PM 35.7361 -108.2256 91° East 470 541 35,000  Level Albuquerque Center
Mon 03:32:35 PM 35.7339 -108.0708 91° East 472 543 35,000  Level Albuquerque Center
Mon 03:33:36 PM 35.7308 -107.8906 91° East 473 544 35,000  Level Albuquerque Center
Mon 03:34:38 PM 35.7289 -107.7375 91° East 470 541 35,000  Level Albuquerque Center
Mon 03:35:40 PM 35.7247 -107.5589 92° East 468 539 35,000  Level Albuquerque Center
Mon 03:36:42 PM 35.7233 -107.4044 91° East 470 541 35,000  Level Albuquerque Center
Mon 03:37:43 PM 35.7200 -107.2272 91° East 466 536 35,000  Level Albuquerque Center
Mon 03:38:45 PM 35.7161 -107.0747 92° East 465 535 35,000  Level Albuquerque Center
Mon 03:39:46 PM 35.7139 -106.8975 91° East 465 535 35,000  Level Albuquerque Center
Mon 03:40:48 PM 35.7097 -106.7467 92° East 463 533 35,000  Level Albuquerque Center
Mon 03:41:50 PM 35.7047 -106.5950 92° East 463 533 35,000  Level Albuquerque Center
Mon 03:42:52 PM 35.6894 -106.4183 96° East 464 534 35,000  Level Albuquerque Center
Mon 03:43:53 PM 35.6778 -106.2675 95° East 465 535 35,000  Level Albuquerque Center
Mon 03:44:55 PM 35.6658 -106.1125 95° East 467 537 35,000  Level Albuquerque Center
Mon 03:45:57 PM 35.6519 -105.9489 96° East 466 536 35,000  Level Albuquerque Center
Mon 03:46:58 PM 35.6383 -105.7622 95° East 467 537 35,000  Level Albuquerque Center
Mon 03:48:00 PM 35.6253 -105.6022 96° East 467 537 35,000  Level Albuquerque Center
Mon 03:49:02 PM 35.6097 -105.4436 97° East 464 534 35,000  Level Albuquerque Center
Mon 03:50:04 PM 35.5939 -105.2847 97° East 465 535 35,000  Level Albuquerque Center
Mon 03:51:05 PM 35.5794 -105.1231 96° East 470 541 35,000  Level Albuquerque Center
Mon 03:52:07 PM 35.5672 -104.9622 95° East 469 540 35,000  Level Albuquerque Center
Mon 03:53:09 PM 35.5533 -104.8011 96° East 471 542 35,000 677 Level Albuquerque Center
Mon 03:54:11 PM 35.5392 -104.6431 96° East 465 535 36,400 976 Climbing Albuquerque Center
Mon 03:55:12 PM 35.5214 -104.4853 98° East 462 532 37,000 293 Climbing Albuquerque Center
Mon 03:56:14 PM 35.4983 -104.3294 100° East 459 528 37,000  Level Albuquerque Center
Mon 03:57:16 PM 35.4747 -104.1722 100° East 459 528 37,000  Level Albuquerque Center
Mon 03:58:18 PM 35.4483 -103.9889 100° East 459 528 37,000  Level Albuquerque Center
Mon 03:59:19 PM 35.4247 -103.8344 101° East 455 524 37,000  Level Albuquerque Center
Mon 04:00:21 PM 35.4011 -103.6817 101° East 452 520 37,000  Level Albuquerque Center
Mon 04:01:23 PM 35.3778 -103.5292 101° East 451 519 37,000  Level Albuquerque Center
Mon 04:02:25 PM 35.3542 -103.3750 101° East 454 522 37,000  Level Albuquerque Center
Mon 04:03:27 PM 35.3303 -103.2214 101° East 455 524 37,000  Level Albuquerque Center
Mon 04:04:28 PM 35.3047 -103.0661 101° East 460 529 37,000  Level Albuquerque Center
Mon 04:05:30 PM 35.2772 -102.8947 101° East 464 534 37,000  Level Albuquerque Center
Mon 04:06:32 PM 35.2522 -102.7394 101° East 467 537 37,000  Level Albuquerque Center
Mon 04:07:34 PM 35.2267 -102.5828 101° East 469 540 37,000  Level Albuquerque Center
Mon 04:08:35 PM 35.2011 -102.4281 101° East 467 537 37,000  Level Albuquerque Center
Mon 04:09:37 PM 35.1758 -102.2736 101° East 466 536 37,000  Level Albuquerque Center
Mon 04:10:39 PM 35.1497 -102.1228 102° East 460 529 37,000  Level Albuquerque Center
Mon 04:11:41 PM 35.1214 -101.9514 101° East 453 521 37,000  Level Albuquerque Center
Mon 04:12:42 PM 35.0972 -101.7981 101° East 455 524 37,000  Level Albuquerque Center
Mon 04:13:44 PM 35.0694 -101.6378 102° East 453 521 37,000  Level Albuquerque Center
Mon 04:14:46 PM 35.0439 -101.4883 102° East 451 519 37,000  Level Albuquerque Center
Mon 04:15:48 PM 35.0169 -101.3375 102° East 453 521 37,000  Level Albuquerque Center
Mon 04:16:49 PM 34.9883 -101.1739 102° East 452 520 37,000  Level Albuquerque Center
Mon 04:17:51 PM 34.9631 -101.0267 102° East 448 516 37,000  Level Albuquerque Center
Mon 04:18:53 PM 34.9364 -100.8789 102° East 448 516 37,000  Level Albuquerque Center
Mon 04:19:54 PM 34.9100 -100.7322 102° East 445 512 37,000  Level Albuquerque Center
Mon 04:20:56 PM 34.8833 -100.5850 102° East 446 513 37,000  Level Albuquerque Center
Mon 04:21:58 PM 34.8572 -100.4392 102° East 443 510 37,000  Level Albuquerque Center
Mon 04:22:59 PM 34.8269 -100.2747 103° East 442 509 37,000  Level Albuquerque Center
Mon 04:24:01 PM 34.8008 -100.1269 102° East 445 512 37,000  Level Albuquerque Center
Mon 04:25:03 PM 34.7736 -99.9792 103° East 447 514 37,000  Level Albuquerque Center
Mon 04:26:06 PM 34.7458 -99.8317 103° East 448 516 37,000  Level Albuquerque Center
Mon 04:27:14 PM 34.7083 -99.6542 104° East 442 509 37,000  Level Fort Worth Center
Mon 04:28:14 PM 34.6836 -99.5044 101° East 442 509 37,000  Level Fort Worth Center
Mon 04:29:14 PM 34.6525 -99.3622 105° East 447 514 37,000  Level Fort Worth Center
Mon 04:30:14 PM 34.6256 -99.2103 102° East 447 514 37,000  Level Fort Worth Center
Mon 04:31:14 PM 34.5944 -99.0558 104° East 434 499 37,000  Level Fort Worth Center
Mon 04:32:14 PM 34.5669 -98.9089 103° East 434 499 37,000  Level Fort Worth Center
Mon 04:33:14 PM 34.5375 -98.7647 104° East 434 499 37,000  Level Fort Worth Center
Mon 04:34:14 PM 34.5097 -98.6231 103° East 434 499 37,000  Level Fort Worth Center
Mon 04:35:15 PM 34.4797 -98.4792 104° East 434 499 37,000  Level Fort Worth Center
Mon 04:36:14 PM 34.4517 -98.3353 103° East 434 499 37,000  Level Fort Worth Center
Mon 04:37:14 PM 34.4233 -98.1939 104° East 434 499 37,000 100 Level Fort Worth Center
Mon 04:38:14 PM 34.3928 -98.0503 104° East 434 499 37,200 450 Climbing Fort Worth Center
Mon 04:39:14 PM 34.3644 -97.9067 103° East 434 499 37,900 750 Climbing Fort Worth Center
Mon 04:40:14 PM 34.3336 -97.7656 105° East 434 499 38,700 550 Climbing Fort Worth Center
Mon 04:41:14 PM 34.3025 -97.6197 104° East 434 499 39,000 150 Climbing Fort Worth Center
Mon 04:42:14 PM 34.2736 -97.4789 104° East 434 499 39,000  Level Fort Worth Center
Mon 04:43:14 PM 34.2442 -97.3331 104° East 434 499 39,000  Level Fort Worth Center
Mon 04:44:14 PM 34.2150 -97.1950 104° East 434 499 39,000  Level Fort Worth Center
Mon 04:45:14 PM 34.1833 -97.0569 105° East 429 494 39,000  Level Fort Worth Center
Mon 04:46:14 PM 34.1578 -96.9192 103° East 429 494 39,000  Level Fort Worth Center
Mon 04:47:15 PM 34.1258 -96.7836 106° East 424 488 39,000  Level Fort Worth Center
Mon 04:48:14 PM 34.0981 -96.6461 104° East 418 481 39,000  Level Fort Worth Center
Mon 04:49:14 PM 34.0764 -96.5208 102° East 418 481 39,000  Level Fort Worth Center
Mon 04:50:15 PM 34.0461 -96.3833 105° East 418 481 39,000  Level Fort Worth Center
Mon 04:51:14 PM 34.0156 -96.2483 105° East 413 475 39,000  Level Fort Worth Center
Mon 04:52:14 PM 33.9850 -96.1083 105° East 418 481 39,000  Level Fort Worth Center
Mon 04:53:14 PM 33.9542 -95.9661 105° East 418 481 39,000  Level Fort Worth Center
Mon 04:54:14 PM 33.9192 -95.8267 107° East 418 481 39,000  Level Fort Worth Center
Mon 04:55:14 PM 33.8903 -95.6894 104° East 423 487 39,000  Level Fort Worth Center
Mon 04:56:15 PM 33.8528 -95.5428 107° East 423 487 39,000  Level Fort Worth Center
Mon 04:57:14 PM 33.8192 -95.4008 106° East 423 487 39,000  Level Fort Worth Center
Mon 04:58:14 PM 33.7897 -95.2567 104° East 428 493 39,000  Level Fort Worth Center
Mon 04:59:14 PM 33.7558 -95.1125 106° East 439 505 39,000  Level Fort Worth Center
Mon 05:00:14 PM 33.7489 -94.9628 93° East 439 505 39,000  Level Fort Worth Center
Mon 05:01:14 PM 33.7669 -94.8300 81° East 439 505 39,000  Level Fort Worth Center
Mon 05:02:15 PM 33.7889 -94.6794 80° East 450 518 39,000  Level Fort Worth Center
Mon 05:03:14 PM 33.8086 -94.5339 81° East 450 518 39,000  Level Fort Worth Center
Mon 05:04:14 PM 33.8300 -94.3856 80° East 450 518 39,000  Level Fort Worth Center
Mon 05:05:15 PM 33.8558 -94.2419 78° East 450 518 39,000  Level Fort Worth Center
Mon 05:06:14 PM 33.8542 -94.0969 91° East 444 511 39,000  Level Fort Worth Center
Mon 05:07:14 PM 33.8172 -93.9611 108° East 433 498 39,000  Level Fort Worth Center
Mon 05:08:14 PM 33.7839 -93.8225 106° East 428 493 39,000  Level Fort Worth Center
Mon 05:09:14 PM 33.7467 -93.6839 108° East 428 493 39,000  Level Fort Worth Center
Mon 05:10:14 PM 33.7111 -93.5458 107° East 438 504 39,000  Level Fort Worth Center
Mon 05:11:14 PM 33.6775 -93.4075 106° East 433 498 39,000  Level Fort Worth Center
Mon 05:12:14 PM 33.6417 -93.2669 107° East 433 498 39,000  Level Fort Worth Center
Mon 05:13:14 PM 33.6036 -93.1314 109° East 433 498 39,000  Level Fort Worth Center
Mon 05:14:14 PM 33.5678 -92.9986 108° East 433 498 39,000  Level Fort Worth Center
Mon 05:15:14 PM 33.5339 -92.8633 107° East 427 491 39,000  Level Fort Worth Center
Mon 05:16:14 PM 33.4975 -92.7308 108° East 422 486 39,000  Level Fort Worth Center
Mon 05:17:14 PM 33.4633 -92.5981 107° East 417 480 39,000  Level Fort Worth Center
Mon 05:18:14 PM 33.4311 -92.4681 107° East 417 480 39,000  Level Fort Worth Center
Mon 05:19:14 PM 33.3967 -92.3356 107° East 417 480 39,000  Level Fort Worth Center
Mon 05:20:27 PM 33.3517 -92.1803 109° East 416 479 39,000  Level Memphis Center
Mon 05:21:27 PM 33.3139 -92.0475 109° East 416 479 39,000  Level Memphis Center
Mon 05:22:27 PM 33.2719 -91.9003 109° East 426 490 39,000  Level Memphis Center
Mon 05:23:27 PM 33.2339 -91.7678 109° East 426 490 39,000  Level Memphis Center
Mon 05:24:27 PM 33.1978 -91.6383 108° East 426 490 39,000  Level Memphis Center
Mon 05:25:27 PM 33.1614 -91.5036 108° East 426 490 39,000  Level Memphis Center
Mon 05:26:27 PM 33.1250 -91.3742 109° East 426 490 39,000  Level Memphis Center
Mon 05:27:27 PM 33.0883 -91.2450 109° East 420 483 39,000  Level Memphis Center
Mon 05:28:27 PM 33.0517 -91.1156 109° East 415 478 39,000  Level Memphis Center
Mon 05:29:27 PM 33.0147 -90.9842 109° East 415 478 39,000  Level Memphis Center
Mon 05:30:27 PM 32.9778 -90.8550 109° East 415 478 39,000  Level Memphis Center
Mon 05:31:27 PM 32.9408 -90.7211 108° East 415 478 39,000  Level Memphis Center
Mon 05:32:27 PM 32.9033 -90.5897 109° East 415 478 39,000  Level Memphis Center
Mon 05:33:27 PM 32.8661 -90.4561 108° East 420 483 39,000  Level Memphis Center
Mon 05:34:27 PM 32.8264 -90.3275 110° East 420 483 39,000  Level Memphis Center
Mon 05:35:27 PM 32.7928 -90.2089 109° East 420 483 39,000  Level Memphis Center
Mon 05:36:27 PM 32.7531 -90.0756 109° East 420 483 39,000  Level Memphis Center
Mon 05:37:27 PM 32.7150 -89.9450 109° East 425 489 39,000  Level Memphis Center
Mon 05:38:27 PM 32.6769 -89.8119 109° East 425 489 39,000  Level Memphis Center
Mon 05:39:27 PM 32.6386 -89.6814 109° East 425 489 39,000  Level Memphis Center
Mon 05:40:27 PM 32.6003 -89.5486 109° East 425 489 39,000  Level Memphis Center
Mon 05:41:27 PM 32.5575 -89.4033 109° East 425 489 39,000  Level Memphis Center
Mon 05:42:27 PM 32.5211 -89.2758 109° East 425 489 39,000  Level Memphis Center
Mon 05:43:27 PM 32.4822 -89.1433 109° East 425 489 39,000  Level Memphis Center
Mon 05:44:27 PM 32.4433 -89.0108 109° East 425 489 39,000  Level Memphis Center
Mon 05:46:19 PM 32.3656 -88.7722 111° Southeast 436 502 39,000  Level Atlanta Center
Mon 05:47:19 PM 32.3139 -88.6444 116° Southeast 436 502 39,000  Level Atlanta Center
Mon 05:48:19 PM 32.2644 -88.5142 114° Southeast 436 502 39,000  Level Atlanta Center
Mon 05:49:19 PM 32.2169 -88.3839 113° Southeast 431 496 39,000  Level Atlanta Center
Mon 05:50:19 PM 32.1650 -88.2564 116° Southeast 431 496 39,000  Level Atlanta Center
Mon 05:51:19 PM 32.1153 -88.1242 114° Southeast 431 496 39,000  Level Atlanta Center
Mon 05:52:19 PM 32.0689 -88.0117 116° Southeast 431 496 39,000  Level Atlanta Center
Mon 05:53:19 PM 32.0186 -87.8797 114° Southeast 431 496 39,000  Level Atlanta Center
Mon 05:54:19 PM 31.9664 -87.7478 115° Southeast 431 496 39,000  Level Atlanta Center
Mon 05:55:19 PM 31.8969 -87.6275 124° Southeast 436 502 39,000  Level Atlanta Center
Mon 05:56:19 PM 31.8208 -87.5167 129° Southeast 436 502 39,000  Level Atlanta Center
Mon 05:57:19 PM 31.7403 -87.4064 131° Southeast 441 507 39,000  Level Atlanta Center
Mon 05:58:19 PM 31.6683 -87.2889 126° Southeast 441 507 39,000  Level Atlanta Center
Mon 05:59:19 PM 31.6197 -87.1556 113° Southeast 436 502 39,000  Level Atlanta Center
Mon 06:03:26 PM 31.4067 -86.5972 114° Southeast 444 511 39,000  Level Jacksonville Center
Mon 06:04:26 PM 31.3583 -86.4639 113° Southeast 444 511 39,000  Level Jacksonville Center
Mon 06:05:26 PM 31.3078 -86.3308 114° Southeast 444 511 39,000  Level Jacksonville Center
Mon 06:06:26 PM 31.2569 -86.1978 114° Southeast 444 511 39,000  Level Jacksonville Center
Mon 06:07:26 PM 31.2061 -86.0647 114° Southeast 439 505 39,000 -100 Level Jacksonville Center
Mon 06:08:26 PM 31.1572 -85.9319 113° Southeast 439 505 38,800 -600 Descending Jacksonville Center
Mon 06:09:26 PM 31.1061 -85.8017 115° Southeast 444 511 37,800 -950 Descending Jacksonville Center
Mon 06:10:26 PM 31.0567 -85.6692 114° Southeast 444 511 36,900 -950 Descending Jacksonville Center
Mon 06:11:26 PM 31.0075 -85.5319 113° Southeast 439 505 35,900 -1,000 Descending Jacksonville Center
Mon 06:12:26 PM 30.9581 -85.3950 113° Southeast 451 519 34,900 -1,050 Descending Jacksonville Center
Mon 06:13:26 PM 30.8875 -85.2697 123° Southeast 451 519 33,800 -950 Descending Jacksonville Center
Mon 06:14:26 PM 30.8061 -85.1492 128° Southeast 464 534 33,000 -400 Descending Jacksonville Center
Mon 06:15:26 PM 30.7247 -85.0264 128° Southeast 474 545 33,000 -550 Level Jacksonville Center
Mon 06:16:26 PM 30.6494 -84.9017 125° Southeast 474 545 31,900 -1,200 Descending Jacksonville Center
Mon 06:17:26 PM 30.6558 -84.7544 87° East 434 499 30,600 -1,300 Descending Jacksonville Center
Mon 06:18:26 PM 30.6892 -84.6150 74° East 424 488 29,300 -800 Descending Jacksonville Center
Mon 06:19:26 PM 30.7181 -84.4875 75° East 441 507 29,000 -150 Descending Jacksonville Center
Mon 06:20:26 PM 30.7133 -84.3422 92° East 447 514 29,000  Level Jacksonville Center
Mon 06:21:26 PM 30.6836 -84.2092 105° East 430 495 29,000  Level Jacksonville Center
Mon 06:22:26 PM 30.6556 -84.0711 103° East 430 495 29,000  Level Jacksonville Center
Mon 06:23:26 PM 30.6256 -83.9356 104° East 430 495 29,000 -150 Level Jacksonville Center
Mon 06:24:26 PM 30.5931 -83.8025 106° East 435 501 28,700 -1,200 Descending Jacksonville Center
Mon 06:25:26 PM 30.5689 -83.6669 102° East 430 495 26,600 -2,250 Descending Jacksonville Center
Mon 06:26:26 PM 30.5425 -83.5414 104° East 416 479 24,200 -1,450 Descending Jacksonville Center
Mon 06:27:26 PM 30.5328 -83.4158 95° East 405 466 23,700 -800 Descending Jacksonville Center
Mon 06:28:26 PM 30.5331 -83.2833 90° East 385 443 22,600 -1,050 Descending Jacksonville Center
Mon 06:29:26 PM 30.5856 -83.1822 59° Northeast 359 413 21,600 -1,000 Descending Jacksonville Center
Mon 06:30:26 PM 30.6422 -83.0858 56° Northeast 347 399 20,600 -1,000 Descending Jacksonville Center
Mon 06:31:26 PM 30.6361 -82.9697 93° East 339 390 19,600 -1,000 Descending Jacksonville Center
Mon 06:32:26 PM 30.6297 -82.8539 94° East 344 396 18,600 -1,150 Descending Jacksonville Center
Mon 06:33:26 PM 30.6172 -82.7431 97° East 349 402 17,300 -1,650 Descending Jacksonville Center
Mon 06:34:26 PM 30.6044 -82.6319 98° East 349 402 15,300 -2,089 Descending Jacksonville Center
Mon 06:35:18 PM 30.5958 -82.5450 97° East 338 389 13,400 -2,089 Descending Jacksonville Center
Mon 06:36:18 PM 30.5853 -82.4389 97° East 329 379 11,400 -1,252 Descending Jacksonville Center
Mon 06:37:13 PM 30.5681 -82.3522 103° East 298 343 11,000 -1,034 Descending Jacksonville Center
Mon 06:38:14 PM 30.5447 -82.2656 107° East 265 305 9,400 -1,579 Descending Jacksonville Center
Mon 06:39:26 PM 30.5150 -82.1667 109° East 273 314 7,500 -1,736 Descending Jacksonville Center
Mon 06:40:15 PM 30.4981 -82.1042 107° East 254 292 5,900 -1,582 Descending Jacksonville Center
Mon 06:41:16 PM 30.4764 -82.0247 108° East 244 281 4,600 -824 Descending Jacksonville Center
Mon 06:42:26 PM 30.4553 -81.9575 110° East 219 252 4,100 -689 Descending Jacksonville Center
Mon 06:43:18 PM 30.4444 -81.9142 106° East 164 189 3,200 -964 Descending Jacksonville Center
Mon 06:44:18 PM 30.4461 -81.8614 88° East 171 197 2,300 -614 Descending Jacksonville Center
Mon 06:45:25 PM 30.4622 -81.8081 71° East 149 171 1,900 -469 Descending Jacksonville Center
Mon 06:46:26 PM 30.4744 -81.7694 70° East 128 147 1,300 -672 Descending Jacksonville Center
Mon 06:47:21 PM 30.4847 -81.7331 72° East 123 142 600 -764 Descending Jacksonville Center
Mon 06:49:00 PM 30.4941 -81.6879 127° Southeast  Level Estimated
Mon 06:56:00 PM 30.4941 -81.6879 311° West  Level Estimated

Login

Don't have an account? Register now (free) for customized features, flight alerts, and more!